createdAt,value
2023-01-31T00:02:20.720Z,100507.34
2023-01-31T00:04:49.290Z,100509.41
2023-01-31T00:07:17.160Z,100518.59
2023-01-31T00:09:45.037Z,100525.94
2023-01-31T00:12:12.917Z,100517.94
2023-01-31T00:14:40.900Z,100527.97
2023-01-31T00:17:08.871Z,100534.44
2023-01-31T00:19:37.267Z,100549.06
2023-01-31T00:22:05.241Z,100540.91
2023-01-31T00:24:33.144Z,100538.38
2023-01-31T00:27:01.086Z,100531.22
2023-01-31T00:29:29.007Z,100536.66
2023-01-31T00:31:57.072Z,100537.03
2023-01-31T00:34:25.012Z,100526.13
2023-01-31T00:36:52.856Z,100544.34
2023-01-31T00:39:20.791Z,100546.38
2023-01-31T00:41:48.661Z,100534.66
2023-01-31T00:44:16.574Z,100543.19
2023-01-31T00:46:44.502Z,100550.50
2023-01-31T00:49:12.315Z,100558.81
2023-01-31T00:51:40.211Z,100543.19
2023-01-31T00:54:08.080Z,100554.06
2023-01-31T00:56:36.135Z,100546.06
2023-01-31T00:59:04.592Z,100555.25
2023-01-31T01:01:32.472Z,100561.88
2023-01-31T01:04:00.353Z,100560.34
2023-01-31T01:06:28.241Z,100571.41
2023-01-31T01:08:56.251Z,100572.44
2023-01-31T01:11:24.309Z,100571.75
2023-01-31T01:13:52.264Z,100586.38
2023-01-31T01:16:20.210Z,100598.09
2023-01-31T01:18:49.369Z,100596.44
2023-01-31T01:21:17.240Z,100602.03
2023-01-31T01:23:45.064Z,100604.75
2023-01-31T01:26:13.047Z,100603.91
2023-01-31T01:28:41.152Z,100602.38
2023-01-31T01:31:09.134Z,100610.69
2023-01-31T01:33:37.101Z,100608.81
2023-01-31T01:36:05.345Z,100596.25
2023-01-31T01:38:33.607Z,100600.00
2023-01-31T01:41:02.241Z,100604.41
2023-01-31T01:43:30.787Z,100603.72
2023-01-31T01:45:58.676Z,100607.28
2023-01-31T01:48:26.574Z,100612.94
2023-01-31T01:50:54.474Z,100614.81
2023-01-31T01:53:22.466Z,100613.94
2023-01-31T01:55:50.539Z,100615.81
2023-01-31T01:58:18.613Z,100618.53
2023-01-31T02:00:46.535Z,100617.69
2023-01-31T02:03:14.622Z,100625.84
2023-01-31T02:05:42.501Z,100621.59
2023-01-31T02:08:11.363Z,100626.69
2023-01-31T02:10:39.236Z,100637.75
2023-01-31T02:13:07.172Z,100636.22
2023-01-31T02:15:35.097Z,100634.16
2023-01-31T02:18:02.991Z,100620.75
2023-01-31T02:20:30.880Z,100619.03
2023-01-31T02:22:58.805Z,100607.16
2023-01-31T02:25:26.809Z,100626.19
2023-01-31T02:27:54.794Z,100632.81
2023-01-31T02:30:22.955Z,100641.81
2023-01-31T02:32:50.919Z,100646.22
2023-01-31T02:35:19.214Z,100645.59
2023-01-31T02:37:47.290Z,100654.59
2023-01-31T02:40:15.215Z,100652.69
2023-01-31T02:42:43.105Z,100662.06
2023-01-31T02:45:09.988Z,100663.25
2023-01-31T02:47:37.911Z,100663.25
2023-01-31T02:50:05.855Z,100670.72
2023-01-31T02:52:33.747Z,100667.34
2023-01-31T02:55:19.329Z,100669.38
2023-01-31T02:57:47.320Z,100679.41
2023-01-31T03:00:15.248Z,100680.25
2023-01-31T03:02:43.170Z,100685.69
2023-01-31T03:05:11.002Z,100688.41
2023-01-31T03:07:39.048Z,100695.88
2023-01-31T03:10:06.926Z,100694.69
2023-01-31T03:12:34.841Z,100694.84
2023-01-31T03:15:02.701Z,100707.78
2023-01-31T03:17:32.902Z,100702.66
2023-01-31T03:20:00.864Z,100713.03
2023-01-31T03:22:28.757Z,100711.50
2023-01-31T03:24:56.660Z,100716.09
2023-01-31T03:27:24.551Z,100712.69
2023-01-31T03:29:52.491Z,100713.72
2023-01-31T03:32:20.614Z,100712.69
2023-01-31T03:34:48.523Z,100712.84
2023-01-31T03:37:16.592Z,100722.88
2023-01-31T03:39:44.863Z,100711.16
2023-01-31T03:42:13.551Z,100711.16
2023-01-31T03:44:41.429Z,100716.59
2023-01-31T03:47:09.344Z,100714.72
2023-01-31T03:49:37.252Z,100713.88
2023-01-31T03:52:05.406Z,100719.31
2023-01-31T03:54:33.274Z,100718.28
2023-01-31T03:59:58.044Z,100722.88
2023-01-31T04:02:25.948Z,100724.75
2023-01-31T04:04:53.816Z,100722.03
2023-01-31T04:07:21.682Z,100717.63
2023-01-31T04:09:49.630Z,100720.34
2023-01-31T04:12:17.522Z,100722.38
2023-01-31T04:14:45.455Z,100736.66
2023-01-31T04:17:13.469Z,100736.66
2023-01-31T04:19:41.362Z,100728.50
2023-01-31T04:22:09.258Z,100741.06
2023-01-31T04:24:37.297Z,100740.91
2023-01-31T04:27:05.306Z,100740.03
2023-01-31T04:29:33.200Z,100739.38
2023-01-31T04:32:01.174Z,100737.66
2023-01-31T04:34:29.108Z,100734.78
2023-01-31T04:36:57.037Z,100738.34
2023-01-31T04:39:24.905Z,100747.53
2023-01-31T04:41:52.864Z,100749.38
2023-01-31T04:44:20.691Z,100744.63
2023-01-31T04:46:48.676Z,100751.09
2023-01-31T04:49:16.850Z,100754.81
2023-01-31T04:51:44.720Z,100755.69
2023-01-31T04:54:12.558Z,100759.25
2023-01-31T04:56:40.426Z,100759.25
2023-01-31T04:59:08.818Z,100751.25
2023-01-31T05:01:36.781Z,100759.41
2023-01-31T05:04:04.906Z,100751.44
2023-01-31T05:06:32.861Z,100748.03
2023-01-31T05:09:01.694Z,100740.72
2023-01-31T05:11:29.735Z,100749.91
2023-01-31T05:13:57.670Z,100749.03
2023-01-31T05:16:25.623Z,100752.78
2023-01-31T05:18:53.592Z,100750.06
2023-01-31T05:21:21.446Z,100746.50
2023-01-31T05:23:49.390Z,100750.25
2023-01-31T05:26:20.252Z,100752.78
2023-01-31T05:28:48.233Z,100751.22
2023-01-31T05:31:16.332Z,100751.41
2023-01-31T05:33:44.670Z,100748.84
2023-01-31T05:36:12.665Z,100745.28
2023-01-31T05:38:40.576Z,100758.03
2023-01-31T05:41:08.456Z,100753.78
2023-01-31T05:43:37.152Z,100754.63
2023-01-31T05:46:05.142Z,100765.50
2023-01-31T05:48:33.521Z,100765.50
2023-01-31T05:51:02.063Z,100769.22
2023-01-31T05:53:30.043Z,100757.69
2023-01-31T05:55:57.926Z,100761.25
2023-01-31T05:58:25.793Z,100767.69
2023-01-31T06:00:53.668Z,100767.69
2023-01-31T06:03:21.626Z,100762.44
2023-01-31T06:05:49.459Z,100772.44
2023-01-31T06:08:17.908Z,100755.47
2023-01-31T06:10:45.773Z,100768.19
2023-01-31T06:13:13.684Z,100765.63
2023-01-31T06:15:41.560Z,100769.19
2023-01-31T06:18:09.464Z,100772.94
2023-01-31T06:20:38.930Z,100774.81
2023-01-31T06:23:06.849Z,100772.25
2023-01-31T06:25:34.834Z,100777.69
2023-01-31T06:28:02.721Z,100788.56
2023-01-31T06:30:30.944Z,100783.28
2023-01-31T06:32:58.891Z,100784.28
2023-01-31T06:35:26.798Z,100782.59
2023-01-31T06:37:54.654Z,100786.31
2023-01-31T06:40:22.580Z,100784.75
2023-01-31T06:42:50.441Z,100796.34
2023-01-31T06:45:18.750Z,100791.22
2023-01-31T06:47:46.893Z,100803.78
2023-01-31T06:50:14.718Z,100791.94
2023-01-31T06:52:42.624Z,100789.34
2023-01-31T06:55:10.568Z,100805.63
2023-01-31T06:57:38.487Z,100803.78
2023-01-31T07:00:06.421Z,100797.50
2023-01-31T07:02:34.476Z,100814.63
2023-01-31T07:05:02.450Z,100807.50
2023-01-31T07:07:30.361Z,100810.22
2023-01-31T07:09:58.250Z,100817.53
2023-01-31T07:12:26.168Z,100821.09
2023-01-31T07:14:54.074Z,100825.50
2023-01-31T07:17:22.504Z,100820.25
2023-01-31T07:19:50.432Z,100812.94
2023-01-31T07:22:21.584Z,100818.38
2023-01-31T07:24:50.953Z,100813.97
2023-01-31T07:27:19.007Z,100808.53
2023-01-31T07:29:46.912Z,100810.38
2023-01-31T07:32:14.775Z,100818.38
2023-01-31T07:34:42.610Z,100801.22
2023-01-31T07:37:10.516Z,100797.69
2023-01-31T07:39:38.526Z,100796.66
2023-01-31T07:42:06.448Z,100794.97
2023-01-31T07:44:34.424Z,100794.06
2023-01-31T07:47:02.409Z,100789.53
2023-01-31T07:49:30.760Z,100788.66
2023-01-31T07:51:58.847Z,100787.81
2023-01-31T07:54:26.705Z,100797.69
2023-01-31T07:56:54.569Z,100790.38
2023-01-31T07:59:22.413Z,100786.81
2023-01-31T08:02:08.208Z,100795.63
2023-01-31T08:04:36.205Z,100782.38
2023-01-31T08:07:05.860Z,100789.53
2023-01-31T08:09:33.764Z,100788.66
2023-01-31T08:12:01.626Z,100778.66
2023-01-31T08:14:29.462Z,100779.66
2023-01-31T08:16:57.380Z,100776.94
2023-01-31T08:19:26.738Z,100782.38
2023-01-31T08:21:54.576Z,100783.53
2023-01-31T08:24:22.408Z,100781.66
2023-01-31T08:26:50.329Z,100777.25
2023-01-31T08:29:18.302Z,100787.09
2023-01-31T08:31:46.291Z,100783.53
2023-01-31T08:34:14.209Z,100773.72
2023-01-31T08:36:42.049Z,100774.56
2023-01-31T08:39:09.989Z,100775.56
2023-01-31T08:41:38.034Z,100770.16
2023-01-31T08:44:05.917Z,100762.16
2023-01-31T08:46:33.937Z,100755.03
2023-01-31T08:49:01.899Z,100751.44
2023-01-31T08:51:30.243Z,100751.44
2023-01-31T08:53:58.260Z,100750.78
2023-01-31T08:56:27.958Z,100749.22
2023-01-31T08:58:56.010Z,100751.41
2023-01-31T09:01:23.969Z,100749.03
2023-01-31T09:03:56.659Z,100744.63
2023-01-31T09:06:25.060Z,100735.78
2023-01-31T09:08:53.007Z,100732.38
2023-01-31T09:11:22.149Z,100744.06
2023-01-31T09:13:51.687Z,100736.09
2023-01-31T09:16:19.624Z,100731.53
2023-01-31T09:18:47.587Z,100725.25
2023-01-31T09:21:15.462Z,100722.69
2023-01-31T09:23:43.441Z,100718.09
2023-01-31T09:26:11.456Z,100719.13
2023-01-31T09:28:39.951Z,100723.53
2023-01-31T09:31:07.948Z,100719.81
2023-01-31T09:33:35.939Z,100717.25
2023-01-31T09:36:03.851Z,100715.38
2023-01-31T09:38:31.777Z,100710.97
2023-01-31T09:40:59.694Z,100723.53
2023-01-31T09:43:27.549Z,100716.41
2023-01-31T09:45:55.958Z,100713.69
2023-01-31T09:48:23.828Z,100699.28
2023-01-31T09:50:52.090Z,100707.41
2023-01-31T09:53:22.059Z,100699.28
2023-01-31T09:55:49.992Z,100695.72
2023-01-31T09:58:17.861Z,100696.72
2023-01-31T10:00:46.750Z,100689.41
2023-01-31T10:03:14.984Z,100680.41
2023-01-31T10:05:42.960Z,100694.84
2023-01-31T10:08:10.874Z,100692.13
2023-01-31T10:10:38.735Z,100694.84
2023-01-31T10:13:06.636Z,100682.13
2023-01-31T10:15:34.560Z,100680.25
2023-01-31T10:18:02.516Z,100688.56
2023-01-31T10:20:33.636Z,100678.38
2023-01-31T10:23:02.917Z,100677.56
2023-01-31T10:25:31.448Z,100691.13
2023-01-31T10:28:01.022Z,100691.28
2023-01-31T10:30:30.294Z,100684.66
2023-01-31T10:32:58.560Z,100681.81
2023-01-31T10:35:26.448Z,100670.94
2023-01-31T10:37:54.402Z,100661.06
2023-01-31T10:40:23.180Z,100654.66
2023-01-31T10:42:52.854Z,100652.78
2023-01-31T10:45:21.818Z,100648.38
2023-01-31T10:47:50.210Z,100637.50
2023-01-31T10:50:18.851Z,100635.78
2023-01-31T10:52:49.582Z,100630.34
2023-01-31T10:55:18.186Z,100629.50
2023-01-31T10:57:46.122Z,100618.66
2023-01-31T11:00:14.060Z,100614.91
2023-01-31T11:02:41.906Z,100611.34
2023-01-31T11:05:10.188Z,100613.22
2023-01-31T11:07:38.063Z,100605.91
2023-01-31T11:10:05.908Z,100588.94
2023-01-31T11:12:33.927Z,100589.97
2023-01-31T11:15:01.829Z,100565.53
2023-01-31T11:17:29.917Z,100571.81
2023-01-31T11:19:58.687Z,100573.81
2023-01-31T11:22:26.536Z,100572.16
2023-01-31T11:24:54.426Z,100564.84
2023-01-31T11:27:22.580Z,100559.25
2023-01-31T11:29:50.411Z,100554.66
2023-01-31T11:32:18.559Z,100540.94
2023-01-31T11:34:46.452Z,100537.03
2023-01-31T11:37:14.491Z,100524.47
2023-01-31T11:39:42.386Z,100519.88
2023-01-31T11:42:10.473Z,100511.56
2023-01-31T11:44:38.644Z,100509.69
2023-01-31T11:47:08.220Z,100498.00
2023-01-31T11:49:36.129Z,100487.97
2023-01-31T11:52:04.114Z,100474.59
2023-01-31T11:54:32.044Z,100471.00
2023-01-31T11:57:02.422Z,100480.84
2023-01-31T11:59:30.445Z,100467.44
2023-01-31T12:01:58.356Z,100457.59
2023-01-31T12:04:26.298Z,100443.19
2023-01-31T12:06:54.434Z,100433.31
2023-01-31T12:09:25.756Z,100441.66
2023-01-31T12:11:53.873Z,100442.66
2023-01-31T12:14:22.109Z,100435.34
2023-01-31T12:16:50.170Z,100433.66
2023-01-31T12:19:18.141Z,100420.09
2023-01-31T12:21:46.092Z,100416.34
2023-01-31T12:24:14.091Z,100409.25
2023-01-31T12:26:42.021Z,100404.66
2023-01-31T12:29:10.980Z,100410.91
2023-01-31T12:31:39.879Z,100401.09
2023-01-31T12:34:07.898Z,100417.53
2023-01-31T12:36:36.073Z,100413.00
2023-01-31T12:39:04.323Z,100413.00
2023-01-31T12:41:32.191Z,100402.13
2023-01-31T12:44:00.051Z,100403.81
2023-01-31T12:46:28.135Z,100378.53
2023-01-31T12:48:56.092Z,100364.75
2023-01-31T12:51:23.996Z,100362.06
2023-01-31T12:53:52.121Z,100362.72
2023-01-31T12:56:20.202Z,100340.34
2023-01-31T12:58:48.062Z,100346.63
2023-01-31T13:01:16.000Z,100346.44
2023-01-31T13:03:43.931Z,100354.59
2023-01-31T13:06:15.582Z,100349.16
2023-01-31T13:08:48.591Z,100366.47
2023-01-31T13:11:24.934Z,100360.22
2023-01-31T13:13:52.981Z,100359.34
2023-01-31T13:16:20.928Z,100351.03
2023-01-31T13:18:48.771Z,100336.63
2023-01-31T13:21:16.840Z,100354.94
2023-01-31T13:23:45.146Z,100348.47
2023-01-31T13:26:13.157Z,100332.19
2023-01-31T13:28:41.671Z,100320.31
2023-01-31T13:31:09.606Z,100318.59
2023-01-31T13:33:37.840Z,100302.31
2023-01-31T13:36:05.814Z,100320.47
2023-01-31T13:38:33.937Z,100333.22
2023-01-31T13:41:01.833Z,100329.47
2023-01-31T13:43:29.668Z,100324.91
2023-01-31T13:45:57.530Z,100333.06
2023-01-31T13:48:25.628Z,100320.47
2023-01-31T13:50:53.654Z,100334.06
2023-01-31T13:53:21.555Z,100316.94
2023-01-31T13:55:49.681Z,100314.22
2023-01-31T13:58:17.652Z,100314.38
2023-01-31T14:00:45.543Z,100311.66
2023-01-31T14:03:13.500Z,100312.69
2023-01-31T14:05:41.499Z,100316.44
2023-01-31T14:08:09.811Z,100312.00
2023-01-31T14:10:37.674Z,100309.13
2023-01-31T14:13:05.671Z,100306.44
2023-01-31T14:15:33.589Z,100315.56
2023-01-31T14:18:01.604Z,100318.13
2023-01-31T14:20:29.494Z,100330.16
2023-01-31T14:22:57.400Z,100306.94
2023-01-31T14:25:25.298Z,100321.34
2023-01-31T14:27:53.207Z,100310.50
2023-01-31T14:30:21.026Z,100307.28
2023-01-31T14:32:48.897Z,100321.53
2023-01-31T14:35:16.727Z,100312.19
2023-01-31T14:37:44.627Z,100321.53
2023-01-31T14:40:12.517Z,100320.16
2023-01-31T14:42:40.402Z,100326.09
2023-01-31T14:45:08.388Z,100318.28
2023-01-31T14:47:36.275Z,100321.38
2023-01-31T14:50:04.201Z,100315.84
2023-01-31T14:52:32.102Z,100330.66
2023-01-31T14:54:59.951Z,100329.00
2023-01-31T14:57:27.777Z,100338.66
2023-01-31T14:59:55.692Z,100344.25
2023-01-31T15:02:23.678Z,100341.41
2023-01-31T15:04:51.631Z,100338.13
2023-01-31T15:07:19.462Z,100330.25
2023-01-31T15:09:50.240Z,100341.03
2023-01-31T15:12:18.167Z,100343.25
2023-01-31T15:14:48.080Z,100329.91
2023-01-31T15:17:32.095Z,100332.78
2023-01-31T15:20:02.192Z,100329.22
2023-01-31T15:22:30.088Z,100322.41
2023-01-31T15:24:58.241Z,100329.53
2023-01-31T15:27:26.123Z,100322.47
2023-01-31T15:29:54.028Z,100317.50
2023-01-31T15:32:22.197Z,100302.91
2023-01-31T15:34:50.097Z,100297.50
2023-01-31T15:37:18.482Z,100293.94
2023-01-31T15:39:46.336Z,100292.47
2023-01-31T15:42:14.259Z,100300.97
2023-01-31T15:44:42.223Z,100301.19
2023-01-31T15:47:10.090Z,100307.78
2023-01-31T15:49:40.583Z,100308.63
2023-01-31T15:52:08.616Z,100309.13
2023-01-31T15:54:36.470Z,100308.78
2023-01-31T15:57:04.307Z,100315.84
2023-01-31T15:59:32.190Z,100307.00
2023-01-31T16:02:00.163Z,100313.44
2023-01-31T16:04:28.255Z,100309.47
2023-01-31T16:06:56.322Z,100324.41
2023-01-31T16:09:24.260Z,100328.63
2023-01-31T16:11:52.977Z,100314.50
2023-01-31T16:14:20.908Z,100317.78
2023-01-31T16:16:48.924Z,100309.13
2023-01-31T16:19:16.833Z,100322.84
2023-01-31T16:21:47.965Z,100315.59
2023-01-31T16:24:16.051Z,100318.78
2023-01-31T16:26:44.037Z,100319.13
2023-01-31T16:29:11.997Z,100314.06
2023-01-31T16:31:40.033Z,100313.75
2023-01-31T16:34:07.925Z,100313.34
2023-01-31T16:36:36.483Z,100322.81
2023-01-31T16:39:04.369Z,100331.00
2023-01-31T16:41:32.271Z,100318.06
2023-01-31T16:44:01.487Z,100324.81
2023-01-31T16:46:30.712Z,100326.50
2023-01-31T16:48:58.609Z,100321.69
2023-01-31T16:51:28.182Z,100310.50
2023-01-31T16:53:56.091Z,100308.56
2023-01-31T16:56:23.995Z,100312.91
2023-01-31T16:58:52.293Z,100320.47
2023-01-31T17:01:20.280Z,100318.97
2023-01-31T17:03:48.150Z,100320.31
2023-01-31T17:06:16.033Z,100318.44
2023-01-31T17:08:43.892Z,100312.97
2023-01-31T17:11:13.817Z,100315.53
2023-01-31T17:13:44.622Z,100309.97
2023-01-31T17:16:12.649Z,100298.38
2023-01-31T17:18:40.573Z,100317.56
2023-01-31T17:21:08.630Z,100308.66
2023-01-31T17:23:36.611Z,100299.88
2023-01-31T17:26:04.544Z,100291.56
2023-01-31T17:28:32.900Z,100308.09
2023-01-31T17:31:00.924Z,100305.06
2023-01-31T17:33:28.851Z,100278.59
2023-01-31T17:35:56.858Z,100285.66
2023-01-31T17:38:24.924Z,100302.66
2023-01-31T17:40:53.256Z,100313.88
2023-01-31T17:43:21.297Z,100305.50
2023-01-31T17:45:49.392Z,100292.97
2023-01-31T17:48:26.406Z,100293.72
2023-01-31T17:50:54.912Z,100284.25
2023-01-31T17:53:22.884Z,100295.81
2023-01-31T17:55:50.769Z,100281.34
2023-01-31T17:58:19.326Z,100281.06
2023-01-31T18:00:47.857Z,100274.28
2023-01-31T18:03:15.904Z,100273.72
2023-01-31T18:05:44.182Z,100263.13
2023-01-31T18:08:12.383Z,100275.06
2023-01-31T18:10:40.264Z,100280.00
2023-01-31T18:13:08.342Z,100273.78
2023-01-31T18:15:36.524Z,100262.19
2023-01-31T18:18:08.650Z,100258.72
2023-01-31T18:20:37.059Z,100266.25
2023-01-31T18:23:04.937Z,100250.41
2023-01-31T18:25:32.840Z,100261.88
2023-01-31T18:28:00.815Z,100247.31
2023-01-31T18:30:28.752Z,100241.34
2023-01-31T18:32:56.711Z,100222.22
2023-01-31T18:35:24.927Z,100220.31
2023-01-31T18:37:53.610Z,100218.81
2023-01-31T18:40:21.520Z,100216.97
2023-01-31T18:42:49.397Z,100218.34
2023-01-31T18:45:17.345Z,100214.41
2023-01-31T18:47:45.263Z,100220.53
2023-01-31T18:50:15.644Z,100231.56
2023-01-31T18:52:44.116Z,100223.75
2023-01-31T18:55:12.203Z,100226.88
2023-01-31T18:57:40.134Z,100227.63
2023-01-31T19:00:08.216Z,100232.63
2023-01-31T19:02:36.231Z,100235.72
2023-01-31T19:05:04.793Z,100245.50
2023-01-31T19:07:34.719Z,100256.91
2023-01-31T19:10:04.187Z,100259.13
2023-01-31T19:12:32.611Z,100259.75
2023-01-31T19:15:00.805Z,100246.31
2023-01-31T19:17:28.989Z,100254.63
2023-01-31T19:19:56.886Z,100248.31
2023-01-31T19:22:28.584Z,100239.22
2023-01-31T19:24:56.653Z,100246.97
2023-01-31T19:27:24.605Z,100250.31
2023-01-31T19:29:52.592Z,100246.81
2023-01-31T19:32:22.530Z,100250.94
2023-01-31T19:34:51.453Z,100248.31
2023-01-31T19:37:20.904Z,100247.06
2023-01-31T19:39:49.613Z,100245.00
2023-01-31T19:42:17.807Z,100263.75
2023-01-31T19:44:45.987Z,100247.63
2023-01-31T19:47:13.872Z,100238.22
2023-01-31T19:49:41.882Z,100236.88
2023-01-31T19:52:10.055Z,100229.25
2023-01-31T19:54:38.801Z,100230.38
2023-01-31T19:57:06.871Z,100231.09
2023-01-31T19:59:36.200Z,100226.81
2023-01-31T20:02:04.182Z,100226.22
2023-01-31T20:04:32.773Z,100252.88
2023-01-31T20:07:00.683Z,100251.94
2023-01-31T20:09:29.417Z,100233.00
2023-01-31T20:11:57.320Z,100238.25
2023-01-31T20:14:25.222Z,100240.03
2023-01-31T20:16:53.164Z,100237.22
2023-01-31T20:19:22.705Z,100237.34
2023-01-31T20:21:50.819Z,100243.19
2023-01-31T20:24:19.086Z,100248.16
2023-01-31T20:26:47.080Z,100238.03
2023-01-31T20:29:15.073Z,100245.00
2023-01-31T20:31:43.073Z,100238.69
2023-01-31T20:34:11.193Z,100240.75
2023-01-31T20:36:39.509Z,100243.09
2023-01-31T20:39:07.661Z,100240.38
2023-01-31T20:41:37.728Z,100251.47
2023-01-31T20:44:06.255Z,100254.53
2023-01-31T20:46:34.174Z,100269.75
2023-01-31T20:49:02.172Z,100272.53
2023-01-31T20:51:30.528Z,100268.53
2023-01-31T20:53:58.997Z,100271.44
2023-01-31T20:56:26.887Z,100273.94
2023-01-31T20:58:54.819Z,100268.03
2023-01-31T21:01:23.317Z,100268.63
2023-01-31T21:03:52.123Z,100267.66
2023-01-31T21:06:20.279Z,100272.44
2023-01-31T21:08:48.648Z,100273.88
2023-01-31T21:11:16.697Z,100272.47
2023-01-31T21:13:44.899Z,100270.03
2023-01-31T21:16:12.934Z,100277.47
2023-01-31T21:18:40.884Z,100271.53
2023-01-31T21:21:09.112Z,100272.47
2023-01-31T21:23:37.560Z,100274.69
2023-01-31T21:26:05.468Z,100272.94
2023-01-31T21:28:33.860Z,100272.66
2023-01-31T21:31:02.614Z,100277.44
2023-01-31T21:33:30.650Z,100269.41
2023-01-31T21:36:00.692Z,100270.34
2023-01-31T21:38:28.696Z,100272.88
2023-01-31T21:41:10.371Z,100272.22
2023-01-31T21:43:40.908Z,100269.91
2023-01-31T21:46:08.840Z,100263.13
2023-01-31T21:48:36.719Z,100275.09
2023-01-31T21:51:04.792Z,100271.06
2023-01-31T21:53:32.832Z,100274.56
2023-01-31T21:56:00.706Z,100274.28
2023-01-31T21:58:28.625Z,100261.22
2023-01-31T22:03:57.341Z,100255.19
2023-01-31T22:06:25.866Z,100250.94
2023-01-31T22:08:53.787Z,100261.38
2023-01-31T22:11:22.027Z,100262.34
2023-01-31T22:13:52.226Z,100260.78
2023-01-31T22:16:21.138Z,100264.84
2023-01-31T22:18:49.054Z,100261.19
2023-01-31T22:21:16.943Z,100264.69
2023-01-31T22:23:44.899Z,100262.69
2023-01-31T22:26:12.800Z,100262.22
2023-01-31T22:28:40.732Z,100256.13
2023-01-31T22:31:08.704Z,100258.34
2023-01-31T22:33:36.591Z,100250.53
2023-01-31T22:36:04.502Z,100264.53
2023-01-31T22:38:32.382Z,100269.31
2023-01-31T22:41:00.267Z,100261.53
2023-01-31T22:43:28.132Z,100253.75
2023-01-31T22:45:56.055Z,100256.47
2023-01-31T22:48:23.907Z,100254.13
2023-01-31T22:50:51.751Z,100250.75
2023-01-31T22:53:19.621Z,100249.25
2023-01-31T22:55:47.536Z,100253.19
2023-01-31T22:58:16.090Z,100260.06
2023-01-31T23:00:44.027Z,100251.22
2023-01-31T23:03:12.277Z,100262.28
2023-01-31T23:05:40.075Z,100261.63
2023-01-31T23:08:08.353Z,100256.56
2023-01-31T23:10:36.240Z,100255.03
2023-01-31T23:13:04.156Z,100269.03
2023-01-31T23:15:32.100Z,100272.81
2023-01-31T23:18:00.109Z,100267.53
2023-01-31T23:20:28.048Z,100273.19
2023-01-31T23:22:55.976Z,100266.22
2023-01-31T23:25:23.858Z,100280.00
2023-01-31T23:27:51.776Z,100276.63
2023-01-31T23:30:19.909Z,100282.44
2023-01-31T23:32:47.988Z,100278.66
2023-01-31T23:35:15.950Z,100286.19
2023-01-31T23:37:43.985Z,100279.41
2023-01-31T23:40:11.891Z,100292.00
2023-01-31T23:42:39.727Z,100292.34
2023-01-31T23:45:07.636Z,100284.41
2023-01-31T23:47:35.504Z,100285.59
2023-01-31T23:50:03.404Z,100286.44
2023-01-31T23:52:31.293Z,100278.66
2023-01-31T23:54:59.203Z,100287.66
2023-01-31T23:57:27.043Z,100282.38
2023-01-31T23:59:55.019Z,100282.59
